Avery, Arkansas
Current Conditions -  °F | °C
As of 6:53 PM on Thursday 27 Nov 2014 (Local Time) from KLLQ Reporting Station
Clear Clear  
Wind Chill: 38°   Ceiling: Unl
Heat Index: 38°   Visibility: 10mi
Dew Point: 31°   Wind: 0mph
Humidity: 76%   Direction: NA
Pressure: 30.48"   Gusts: NA
Location:  33.9283°N, 91.468°W
Report Text: KLLQ 280053Z AUTO 00000KT 10SM CLR 03/M01 A3048 RMK AO2 SLP324 T00331006
Loading
Personal Weather Stations






























Interactive Weather Map New forecast layout! Learn more

10-Day Weather Forecast

Advertisements
Track Severe Weather on mobile